<?xml version="1.0" encoding="UTF-8" standalone="no" ?>
<gpx xmlns="http://www.topografix.com/GPX/1/1" xmlns:xsi="http://www.w3.org/2001/XMLSchema-instance" xsi:schemaLocation="http://www.topografix.com/GPX/1/1 http://www.topografix.com/GPX/1/1/gpx.xsd" version="1.1" creator="VisuGPX - https://www.visugpx.com">
  <metadata>
    <name>La Ria par les Pinedes Depuis Ste Helene</name>
  </metadata>
  <wpt lat="47.69561" lon="-3.20517">
    <ele>2.1</ele>
    <name><![CDATA[Parking Plouhinec Kerrichard]]></name>
  </wpt>
  <wpt lat="47.69636" lon="-3.20416">
    <ele>2</ele>
    <name><![CDATA[Carrefour de sentiers en Y]]></name>
  </wpt>
  <wpt lat="47.69801" lon="-3.19854">
    <ele>5</ele>
    <name><![CDATA[Mane Garuetch]]></name>
  </wpt>
  <wpt lat="47.70316" lon="-3.19638">
    <ele>3.3</ele>
    <name><![CDATA[Moulin de Berringue]]></name>
  </wpt>
  <wpt lat="47.70268" lon="-3.20808">
    <ele>2.4</ele>
    <name><![CDATA[Entre champ et ru]]></name>
  </wpt>
  <wpt lat="47.69883" lon="-3.21189">
    <ele>2</ele>
    <name><![CDATA[Pont de Kerrichard]]></name>
  </wpt>
  <wpt lat="47.6912" lon="-3.21049">
    <ele>2</ele>
    <name><![CDATA[Début du Chenal de Bisconte]]></name>
  </wpt>
  <wpt lat="47.68916" lon="-3.20532">
    <ele>3.7</ele>
    <name><![CDATA[Fin du Chenal de Bisconte]]></name>
  </wpt>
  <wpt lat="47.69076" lon="-3.20279">
    <ele>2.4</ele>
    <name><![CDATA[Pont de Boènten]]></name>
  </wpt>
  <wpt lat="47.68892" lon="-3.19813">
    <ele>2.6</ele>
    <name><![CDATA[Menhir de Jéadéu]]></name>
  </wpt>
  <wpt lat="47.69128" lon="-3.19101">
    <ele>7</ele>
    <name><![CDATA[Chapelle de Saint-Guiilaume]]></name>
  </wpt>
  <wpt lat="47.69642" lon="-3.19917">
    <ele>1.9</ele>
    <name><![CDATA[Pont er Hah]]></name>
  </wpt>
  <wpt lat="47.69557" lon="-3.20514">
    <ele>2</ele>
    <name><![CDATA[Parking Plouhinec Kerrichard]]></name>
  </wpt>
  <trk>
    <name><![CDATA[La Ria par les Pinedes]]></name>
    <extensions>
      <line xmlns="http://www.topografix.com/GPX/gpx_style/0/2">
        <color>0000FF</color>
        <width>4</width>
      </line>
    </extensions>
    <trkseg>
      <trkpt lat="47.69561" lon="-3.20517">
        <ele>2</ele>
        <time>2019-09-12T13:21:11+02:00</time>
      </trkpt>
      <trkpt lat="47.69561" lon="-3.20501">
        <ele>2</ele>
        <time>2019-09-12T13:26:14+02:00</time>
      </trkpt>
      <trkpt lat="47.69577" lon="-3.20478">
        <ele>3</ele>
        <time>2019-09-12T13:26:30+02:00</time>
      </trkpt>
      <trkpt lat="47.69616" lon="-3.20431">
        <ele>5</ele>
        <time>2019-09-12T13:27:12+02:00</time>
      </trkpt>
      <trkpt lat="47.69636" lon="-3.20416">
        <ele>4</ele>
        <time>2019-09-12T13:27:34+02:00</time>
      </trkpt>
      <trkpt lat="47.69644" lon="-3.20422">
        <ele>4</ele>
        <time>2019-09-12T13:27:43+02:00</time>
      </trkpt>
      <trkpt lat="47.69665" lon="-3.2042">
        <ele>4</ele>
        <time>2019-09-12T13:27:59+02:00</time>
      </trkpt>
      <trkpt lat="47.69678" lon="-3.20429">
        <ele>4</ele>
        <time>2019-09-12T13:28:11+02:00</time>
      </trkpt>
      <trkpt lat="47.697" lon="-3.20437">
        <ele>5</ele>
        <time>2019-09-12T13:28:28+02:00</time>
      </trkpt>
      <trkpt lat="47.6974" lon="-3.20431">
        <ele>4</ele>
        <time>2019-09-12T13:29:00+02:00</time>
      </trkpt>
      <trkpt lat="47.69755" lon="-3.20437">
        <ele>4</ele>
        <time>2019-09-12T13:29:15+02:00</time>
      </trkpt>
      <trkpt lat="47.69781" lon="-3.20431">
        <ele>4</ele>
        <time>2019-09-12T13:29:34+02:00</time>
      </trkpt>
      <trkpt lat="47.69809" lon="-3.2044">
        <ele>5</ele>
        <time>2019-09-12T13:29:56+02:00</time>
      </trkpt>
      <trkpt lat="47.69831" lon="-3.20462">
        <ele>7</ele>
        <time>2019-09-12T13:30:17+02:00</time>
      </trkpt>
      <trkpt lat="47.69848" lon="-3.20456">
        <ele>7</ele>
        <time>2019-09-12T13:30:34+02:00</time>
      </trkpt>
      <trkpt lat="47.69851" lon="-3.20445">
        <ele>7</ele>
        <time>2019-09-12T13:30:41+02:00</time>
      </trkpt>
      <trkpt lat="47.69847" lon="-3.20402">
        <ele>5</ele>
        <time>2019-09-12T13:31:04+02:00</time>
      </trkpt>
      <trkpt lat="47.69833" lon="-3.20392">
        <ele>5</ele>
        <time>2019-09-12T13:31:19+02:00</time>
      </trkpt>
      <trkpt lat="47.69833" lon="-3.20369">
        <ele>4</ele>
        <time>2019-09-12T13:31:31+02:00</time>
      </trkpt>
      <trkpt lat="47.69824" lon="-3.20287">
        <ele>4</ele>
        <time>2019-09-12T13:32:15+02:00</time>
      </trkpt>
      <trkpt lat="47.69815" lon="-3.20235">
        <ele>4</ele>
        <time>2019-09-12T13:32:44+02:00</time>
      </trkpt>
      <trkpt lat="47.69811" lon="-3.2023">
        <ele>4</ele>
        <time>2019-09-12T13:33:37+02:00</time>
      </trkpt>
      <trkpt lat="47.69791" lon="-3.20103">
        <ele>3</ele>
        <time>2019-09-12T13:35:03+02:00</time>
      </trkpt>
      <trkpt lat="47.69792" lon="-3.20046">
        <ele>4</ele>
        <time>2019-09-12T13:35:34+02:00</time>
      </trkpt>
      <trkpt lat="47.69773" lon="-3.19986">
        <ele>3</ele>
        <time>2019-09-12T13:36:09+02:00</time>
      </trkpt>
      <trkpt lat="47.69762" lon="-3.19966">
        <ele>3</ele>
        <time>2019-09-12T13:36:22+02:00</time>
      </trkpt>
      <trkpt lat="47.69732" lon="-3.19938">
        <ele>3</ele>
        <time>2019-09-12T13:36:51+02:00</time>
      </trkpt>
      <trkpt lat="47.69738" lon="-3.19907">
        <ele>3</ele>
        <time>2019-09-12T13:38:41+02:00</time>
      </trkpt>
      <trkpt lat="47.69746" lon="-3.19903">
        <ele>3</ele>
        <time>2019-09-12T13:38:48+02:00</time>
      </trkpt>
      <trkpt lat="47.69801" lon="-3.19854">
        <ele>4</ele>
        <time>2019-09-12T13:39:45+02:00</time>
      </trkpt>
      <trkpt lat="47.69772" lon="-3.19841">
        <ele>3</ele>
        <time>2019-09-12T13:40:15+02:00</time>
      </trkpt>
      <trkpt lat="47.69744" lon="-3.19821">
        <ele>3</ele>
        <time>2019-09-12T13:40:41+02:00</time>
      </trkpt>
      <trkpt lat="47.6979" lon="-3.19749">
        <ele>4</ele>
        <time>2019-09-12T13:42:00+02:00</time>
      </trkpt>
      <trkpt lat="47.69803" lon="-3.19744">
        <ele>4</ele>
        <time>2019-09-12T13:42:59+02:00</time>
      </trkpt>
      <trkpt lat="47.69822" lon="-3.19728">
        <ele>3</ele>
        <time>2019-09-12T13:43:44+02:00</time>
      </trkpt>
      <trkpt lat="47.69847" lon="-3.19731">
        <ele>3</ele>
        <time>2019-09-12T13:44:02+02:00</time>
      </trkpt>
      <trkpt lat="47.69867" lon="-3.19732">
        <ele>3</ele>
        <time>2019-09-12T13:44:19+02:00</time>
      </trkpt>
      <trkpt lat="47.69869" lon="-3.19746">
        <ele>4</ele>
        <time>2019-09-12T13:44:28+02:00</time>
      </trkpt>
      <trkpt lat="47.69879" lon="-3.19766">
        <ele>5</ele>
        <time>2019-09-12T13:44:45+02:00</time>
      </trkpt>
      <trkpt lat="47.69896" lon="-3.19828">
        <ele>5</ele>
        <time>2019-09-12T13:45:25+02:00</time>
      </trkpt>
      <trkpt lat="47.69904" lon="-3.19839">
        <ele>5</ele>
        <time>2019-09-12T13:45:35+02:00</time>
      </trkpt>
      <trkpt lat="47.69932" lon="-3.19851">
        <ele>5</ele>
        <time>2019-09-12T13:45:59+02:00</time>
      </trkpt>
      <trkpt lat="47.69949" lon="-3.19846">
        <ele>5</ele>
        <time>2019-09-12T13:46:22+02:00</time>
      </trkpt>
      <trkpt lat="47.69963" lon="-3.19831">
        <ele>5</ele>
        <time>2019-09-12T13:46:47+02:00</time>
      </trkpt>
      <trkpt lat="47.69975" lon="-3.19795">
        <ele>4</ele>
        <time>2019-09-12T13:47:10+02:00</time>
      </trkpt>
      <trkpt lat="47.69998" lon="-3.19623">
        <ele>1.9</ele>
        <time>2019-09-12T13:48:44+02:00</time>
      </trkpt>
      <trkpt lat="47.70013" lon="-3.19573">
        <ele>1</ele>
        <time>2019-09-12T13:49:43+02:00</time>
      </trkpt>
      <trkpt lat="47.70025" lon="-3.19552">
        <ele>1</ele>
        <time>2019-09-12T13:49:57+02:00</time>
      </trkpt>
      <trkpt lat="47.70033" lon="-3.19519">
        <ele>1.8</ele>
        <time>2019-09-12T13:50:16+02:00</time>
      </trkpt>
      <trkpt lat="47.70037" lon="-3.19516">
        <ele>1.8</ele>
        <time>2019-09-12T13:50:20+02:00</time>
      </trkpt>
      <trkpt lat="47.70104" lon="-3.19507">
        <ele>1</ele>
        <time>2019-09-12T13:51:18+02:00</time>
      </trkpt>
      <trkpt lat="47.70116" lon="-3.19502">
        <ele>1</ele>
        <time>2019-09-12T13:51:42+02:00</time>
      </trkpt>
      <trkpt lat="47.70149" lon="-3.19503">
        <ele>2</ele>
        <time>2019-09-12T14:01:30+02:00</time>
      </trkpt>
      <trkpt lat="47.7017" lon="-3.19481">
        <ele>1</ele>
        <time>2019-09-12T14:02:10+02:00</time>
      </trkpt>
      <trkpt lat="47.70185" lon="-3.19478">
        <ele>1</ele>
        <time>2019-09-12T14:02:23+02:00</time>
      </trkpt>
      <trkpt lat="47.70213" lon="-3.1951">
        <ele>1</ele>
        <time>2019-09-12T14:02:52+02:00</time>
      </trkpt>
      <trkpt lat="47.70226" lon="-3.1953">
        <ele>1</ele>
        <time>2019-09-12T14:03:08+02:00</time>
      </trkpt>
      <trkpt lat="47.70259" lon="-3.19599">
        <ele>2</ele>
        <time>2019-09-12T14:03:56+02:00</time>
      </trkpt>
      <trkpt lat="47.70268" lon="-3.19611">
        <ele>2</ele>
        <time>2019-09-12T14:04:07+02:00</time>
      </trkpt>
      <trkpt lat="47.70278" lon="-3.19621">
        <ele>3</ele>
        <time>2019-09-12T14:04:17+02:00</time>
      </trkpt>
      <trkpt lat="47.70313" lon="-3.19638">
        <ele>4</ele>
        <time>2019-09-12T14:04:43+02:00</time>
      </trkpt>
      <trkpt lat="47.70371" lon="-3.19512">
        <ele>2</ele>
        <time>2019-09-12T14:05:17+02:00</time>
      </trkpt>
      <trkpt lat="47.70316" lon="-3.19638">
        <ele>4</ele>
        <time>2019-09-12T14:07:49+02:00</time>
      </trkpt>
      <trkpt lat="47.70309" lon="-3.19697">
        <ele>6</ele>
        <time>2019-09-12T14:08:24+02:00</time>
      </trkpt>
      <trkpt lat="47.70301" lon="-3.1974">
        <ele>8</ele>
        <time>2019-09-12T14:08:47+02:00</time>
      </trkpt>
      <trkpt lat="47.70297" lon="-3.198">
        <ele>9</ele>
        <time>2019-09-12T14:09:17+02:00</time>
      </trkpt>
      <trkpt lat="47.70312" lon="-3.1986">
        <ele>9</ele>
        <time>2019-09-12T14:09:46+02:00</time>
      </trkpt>
      <trkpt lat="47.70328" lon="-3.19903">
        <ele>10</ele>
        <time>2019-09-12T14:10:09+02:00</time>
      </trkpt>
      <trkpt lat="47.7033" lon="-3.19918">
        <ele>10</ele>
        <time>2019-09-12T14:10:19+02:00</time>
      </trkpt>
      <trkpt lat="47.70332" lon="-3.19941">
        <ele>11</ele>
        <time>2019-09-12T14:10:32+02:00</time>
      </trkpt>
      <trkpt lat="47.7033" lon="-3.19999">
        <ele>12</ele>
        <time>2019-09-12T14:11:04+02:00</time>
      </trkpt>
      <trkpt lat="47.70335" lon="-3.2006">
        <ele>9</ele>
        <time>2019-09-12T14:11:40+02:00</time>
      </trkpt>
      <trkpt lat="47.70339" lon="-3.20165">
        <ele>8</ele>
        <time>2019-09-12T14:12:36+02:00</time>
      </trkpt>
      <trkpt lat="47.70343" lon="-3.20216">
        <ele>8</ele>
        <time>2019-09-12T14:13:06+02:00</time>
      </trkpt>
      <trkpt lat="47.70341" lon="-3.20241">
        <ele>8</ele>
        <time>2019-09-12T14:13:17+02:00</time>
      </trkpt>
      <trkpt lat="47.70338" lon="-3.20255">
        <ele>8</ele>
        <time>2019-09-12T14:13:29+02:00</time>
      </trkpt>
      <trkpt lat="47.70255" lon="-3.20252">
        <ele>7</ele>
        <time>2019-09-12T14:14:36+02:00</time>
      </trkpt>
      <trkpt lat="47.7025" lon="-3.20273">
        <ele>7</ele>
        <time>2019-09-12T14:14:49+02:00</time>
      </trkpt>
      <trkpt lat="47.70258" lon="-3.20513">
        <ele>4</ele>
        <time>2019-09-12T14:16:58+02:00</time>
      </trkpt>
      <trkpt lat="47.70268" lon="-3.20808">
        <ele>4</ele>
        <time>2019-09-12T14:19:37+02:00</time>
      </trkpt>
      <trkpt lat="47.70262" lon="-3.20808">
        <ele>4</ele>
        <time>2019-09-12T14:19:42+02:00</time>
      </trkpt>
      <trkpt lat="47.70222" lon="-3.20782">
        <ele>4</ele>
        <time>2019-09-12T14:20:19+02:00</time>
      </trkpt>
      <trkpt lat="47.70177" lon="-3.20776">
        <ele>3</ele>
        <time>2019-09-12T14:21:07+02:00</time>
      </trkpt>
      <trkpt lat="47.70145" lon="-3.20764">
        <ele>3</ele>
        <time>2019-09-12T14:21:38+02:00</time>
      </trkpt>
      <trkpt lat="47.70096" lon="-3.20761">
        <ele>4</ele>
        <time>2019-09-12T14:22:31+02:00</time>
      </trkpt>
      <trkpt lat="47.70079" lon="-3.20751">
        <ele>4</ele>
        <time>2019-09-12T14:22:52+02:00</time>
      </trkpt>
      <trkpt lat="47.70048" lon="-3.20757">
        <ele>5</ele>
        <time>2019-09-12T14:23:23+02:00</time>
      </trkpt>
      <trkpt lat="47.70014" lon="-3.20753">
        <ele>6</ele>
        <time>2019-09-12T14:23:47+02:00</time>
      </trkpt>
      <trkpt lat="47.7001" lon="-3.20756">
        <ele>6</ele>
        <time>2019-09-12T14:23:50+02:00</time>
      </trkpt>
      <trkpt lat="47.69996" lon="-3.20779">
        <ele>5</ele>
        <time>2019-09-12T14:24:05+02:00</time>
      </trkpt>
      <trkpt lat="47.69972" lon="-3.20867">
        <ele>4</ele>
        <time>2019-09-12T14:24:58+02:00</time>
      </trkpt>
      <trkpt lat="47.69952" lon="-3.20918">
        <ele>5</ele>
        <time>2019-09-12T14:25:31+02:00</time>
      </trkpt>
      <trkpt lat="47.69961" lon="-3.20954">
        <ele>5</ele>
        <time>2019-09-12T14:26:30+02:00</time>
      </trkpt>
      <trkpt lat="47.69959" lon="-3.20983">
        <ele>5</ele>
        <time>2019-09-12T14:26:47+02:00</time>
      </trkpt>
      <trkpt lat="47.6995" lon="-3.21008">
        <ele>4</ele>
        <time>2019-09-12T14:27:03+02:00</time>
      </trkpt>
      <trkpt lat="47.6994" lon="-3.21032">
        <ele>4</ele>
        <time>2019-09-12T14:27:19+02:00</time>
      </trkpt>
      <trkpt lat="47.69916" lon="-3.2106">
        <ele>3</ele>
        <time>2019-09-12T14:27:45+02:00</time>
      </trkpt>
      <trkpt lat="47.69905" lon="-3.21083">
        <ele>2</ele>
        <time>2019-09-12T14:28:01+02:00</time>
      </trkpt>
      <trkpt lat="47.69898" lon="-3.21106">
        <ele>2</ele>
        <time>2019-09-12T14:28:15+02:00</time>
      </trkpt>
      <trkpt lat="47.69897" lon="-3.21134">
        <ele>2</ele>
        <time>2019-09-12T14:28:31+02:00</time>
      </trkpt>
      <trkpt lat="47.69883" lon="-3.21189">
        <ele>2</ele>
        <time>2019-09-12T14:29:07+02:00</time>
      </trkpt>
      <trkpt lat="47.69874" lon="-3.2112">
        <ele>2</ele>
        <time>2019-09-12T14:29:38+02:00</time>
      </trkpt>
      <trkpt lat="47.6986" lon="-3.21087">
        <ele>2</ele>
        <time>2019-09-12T14:31:42+02:00</time>
      </trkpt>
      <trkpt lat="47.69827" lon="-3.21042">
        <ele>5</ele>
        <time>2019-09-12T14:32:17+02:00</time>
      </trkpt>
      <trkpt lat="47.69786" lon="-3.21057">
        <ele>4</ele>
        <time>2019-09-12T14:33:00+02:00</time>
      </trkpt>
      <trkpt lat="47.69771" lon="-3.21068">
        <ele>3</ele>
        <time>2019-09-12T14:33:15+02:00</time>
      </trkpt>
      <trkpt lat="47.69761" lon="-3.2107">
        <ele>3</ele>
        <time>2019-09-12T14:33:26+02:00</time>
      </trkpt>
      <trkpt lat="47.6974" lon="-3.21065">
        <ele>4</ele>
        <time>2019-09-12T14:33:47+02:00</time>
      </trkpt>
      <trkpt lat="47.69731" lon="-3.21068">
        <ele>4</ele>
        <time>2019-09-12T14:33:55+02:00</time>
      </trkpt>
      <trkpt lat="47.69701" lon="-3.2106">
        <ele>6</ele>
        <time>2019-09-12T14:34:18+02:00</time>
      </trkpt>
      <trkpt lat="47.69572" lon="-3.2109">
        <ele>5</ele>
        <time>2019-09-12T14:36:59+02:00</time>
      </trkpt>
      <trkpt lat="47.69558" lon="-3.21075">
        <ele>6</ele>
        <time>2019-09-12T14:37:12+02:00</time>
      </trkpt>
      <trkpt lat="47.6953" lon="-3.21052">
        <ele>8</ele>
        <time>2019-09-12T14:37:43+02:00</time>
      </trkpt>
      <trkpt lat="47.69499" lon="-3.21043">
        <ele>9</ele>
        <time>2019-09-12T14:38:08+02:00</time>
      </trkpt>
      <trkpt lat="47.69474" lon="-3.21031">
        <ele>8</ele>
        <time>2019-09-12T14:38:46+02:00</time>
      </trkpt>
      <trkpt lat="47.69438" lon="-3.21018">
        <ele>7</ele>
        <time>2019-09-12T14:39:33+02:00</time>
      </trkpt>
      <trkpt lat="47.69422" lon="-3.21003">
        <ele>7</ele>
        <time>2019-09-12T14:39:55+02:00</time>
      </trkpt>
      <trkpt lat="47.69394" lon="-3.20997">
        <ele>7</ele>
        <time>2019-09-12T14:40:16+02:00</time>
      </trkpt>
      <trkpt lat="47.69383" lon="-3.20998">
        <ele>7</ele>
        <time>2019-09-12T14:40:26+02:00</time>
      </trkpt>
      <trkpt lat="47.69363" lon="-3.2099">
        <ele>7</ele>
        <time>2019-09-12T14:40:43+02:00</time>
      </trkpt>
      <trkpt lat="47.6934" lon="-3.20991">
        <ele>7</ele>
        <time>2019-09-12T14:41:02+02:00</time>
      </trkpt>
      <trkpt lat="47.69321" lon="-3.2098">
        <ele>7</ele>
        <time>2019-09-12T14:41:23+02:00</time>
      </trkpt>
      <trkpt lat="47.69279" lon="-3.2097">
        <ele>7</ele>
        <time>2019-09-12T14:42:04+02:00</time>
      </trkpt>
      <trkpt lat="47.69225" lon="-3.20994">
        <ele>5</ele>
        <time>2019-09-12T14:42:47+02:00</time>
      </trkpt>
      <trkpt lat="47.6921" lon="-3.20989">
        <ele>4</ele>
        <time>2019-09-12T14:43:04+02:00</time>
      </trkpt>
      <trkpt lat="47.6918" lon="-3.20992">
        <ele>3</ele>
        <time>2019-09-12T14:43:42+02:00</time>
      </trkpt>
      <trkpt lat="47.6915" lon="-3.21013">
        <ele>1</ele>
        <time>2019-09-12T14:44:14+02:00</time>
      </trkpt>
      <trkpt lat="47.69133" lon="-3.21042">
        <ele>1</ele>
        <time>2019-09-12T14:44:38+02:00</time>
      </trkpt>
      <trkpt lat="47.6912" lon="-3.21049">
        <ele>2</ele>
        <time>2019-09-12T14:44:56+02:00</time>
      </trkpt>
      <trkpt lat="47.69106" lon="-3.21025">
        <ele>2.6</ele>
        <time>2019-09-12T14:51:25+02:00</time>
      </trkpt>
      <trkpt lat="47.69096" lon="-3.21008">
        <ele>2.3</ele>
        <time>2019-09-12T14:55:45+02:00</time>
      </trkpt>
      <trkpt lat="47.69089" lon="-3.20986">
        <ele>2.2</ele>
        <time>2019-09-12T14:55:58+02:00</time>
      </trkpt>
      <trkpt lat="47.69107" lon="-3.2093">
        <ele>1</ele>
        <time>2019-09-12T14:57:08+02:00</time>
      </trkpt>
      <trkpt lat="47.69133" lon="-3.20869">
        <ele>3</ele>
        <time>2019-09-12T14:57:56+02:00</time>
      </trkpt>
      <trkpt lat="47.69145" lon="-3.20845">
        <ele>3</ele>
        <time>2019-09-12T14:58:04+02:00</time>
      </trkpt>
      <trkpt lat="47.69142" lon="-3.20807">
        <ele>4</ele>
        <time>2019-09-12T14:59:48+02:00</time>
      </trkpt>
      <trkpt lat="47.69137" lon="-3.20775">
        <ele>5</ele>
        <time>2019-09-12T15:00:07+02:00</time>
      </trkpt>
      <trkpt lat="47.69131" lon="-3.20759">
        <ele>5</ele>
        <time>2019-09-12T15:00:18+02:00</time>
      </trkpt>
      <trkpt lat="47.69116" lon="-3.20741">
        <ele>6</ele>
        <time>2019-09-12T15:00:34+02:00</time>
      </trkpt>
      <trkpt lat="47.69077" lon="-3.20713">
        <ele>6</ele>
        <time>2019-09-12T15:01:11+02:00</time>
      </trkpt>
      <trkpt lat="47.69051" lon="-3.20722">
        <ele>4</ele>
        <time>2019-09-12T15:01:44+02:00</time>
      </trkpt>
      <trkpt lat="47.69033" lon="-3.20738">
        <ele>3</ele>
        <time>2019-09-12T15:02:04+02:00</time>
      </trkpt>
      <trkpt lat="47.69025" lon="-3.20741">
        <ele>2</ele>
        <time>2019-09-12T15:02:13+02:00</time>
      </trkpt>
      <trkpt lat="47.69023" lon="-3.20698">
        <ele>4</ele>
        <time>2019-09-12T15:02:47+02:00</time>
      </trkpt>
      <trkpt lat="47.69011" lon="-3.20682">
        <ele>5</ele>
        <time>2019-09-12T15:03:07+02:00</time>
      </trkpt>
      <trkpt lat="47.6898" lon="-3.20666">
        <ele>5</ele>
        <time>2019-09-12T15:03:37+02:00</time>
      </trkpt>
      <trkpt lat="47.68971" lon="-3.20629">
        <ele>4</ele>
        <time>2019-09-12T15:04:30+02:00</time>
      </trkpt>
      <trkpt lat="47.68962" lon="-3.20606">
        <ele>3</ele>
        <time>2019-09-12T15:04:48+02:00</time>
      </trkpt>
      <trkpt lat="47.68954" lon="-3.20564">
        <ele>2</ele>
        <time>2019-09-12T15:05:13+02:00</time>
      </trkpt>
      <trkpt lat="47.68928" lon="-3.20557">
        <ele>1</ele>
        <time>2019-09-12T15:05:40+02:00</time>
      </trkpt>
      <trkpt lat="47.68916" lon="-3.20532">
        <ele>3.7</ele>
        <time>2019-09-12T15:06:50+02:00</time>
      </trkpt>
      <trkpt lat="47.68923" lon="-3.20522">
        <ele>3.5</ele>
        <time>2019-09-12T15:07:11+02:00</time>
      </trkpt>
      <trkpt lat="47.6895" lon="-3.20525">
        <ele>3</ele>
        <time>2019-09-12T15:08:08+02:00</time>
      </trkpt>
      <trkpt lat="47.68958" lon="-3.20495">
        <ele>3</ele>
        <time>2019-09-12T15:08:39+02:00</time>
      </trkpt>
      <trkpt lat="47.68959" lon="-3.20481">
        <ele>3</ele>
        <time>2019-09-12T15:08:49+02:00</time>
      </trkpt>
      <trkpt lat="47.68964" lon="-3.20463">
        <ele>3</ele>
        <time>2019-09-12T15:09:01+02:00</time>
      </trkpt>
      <trkpt lat="47.6897" lon="-3.20419">
        <ele>3</ele>
        <time>2019-09-12T15:09:30+02:00</time>
      </trkpt>
      <trkpt lat="47.68969" lon="-3.20369">
        <ele>3</ele>
        <time>2019-09-12T15:09:59+02:00</time>
      </trkpt>
      <trkpt lat="47.68972" lon="-3.20349">
        <ele>3</ele>
        <time>2019-09-12T15:10:11+02:00</time>
      </trkpt>
      <trkpt lat="47.68971" lon="-3.20314">
        <ele>3</ele>
        <time>2019-09-12T15:10:34+02:00</time>
      </trkpt>
      <trkpt lat="47.68958" lon="-3.20273">
        <ele>1</ele>
        <time>2019-09-12T15:11:06+02:00</time>
      </trkpt>
      <trkpt lat="47.68948" lon="-3.20254">
        <ele>2</ele>
        <time>2019-09-12T15:11:33+02:00</time>
      </trkpt>
      <trkpt lat="47.6894" lon="-3.20232">
        <ele>1.8</ele>
        <time>2019-09-12T15:11:47+02:00</time>
      </trkpt>
      <trkpt lat="47.6895" lon="-3.20215">
        <ele>1.7</ele>
        <time>2019-09-12T15:12:04+02:00</time>
      </trkpt>
      <trkpt lat="47.68982" lon="-3.20227">
        <ele>1.8</ele>
        <time>2019-09-12T15:12:35+02:00</time>
      </trkpt>
      <trkpt lat="47.69005" lon="-3.20245">
        <ele>1.7</ele>
        <time>2019-09-12T15:12:59+02:00</time>
      </trkpt>
      <trkpt lat="47.69029" lon="-3.2028">
        <ele>2</ele>
        <time>2019-09-12T15:13:40+02:00</time>
      </trkpt>
      <trkpt lat="47.69076" lon="-3.20279">
        <ele>3</ele>
        <time>2019-09-12T15:14:27+02:00</time>
      </trkpt>
      <trkpt lat="47.69084" lon="-3.20243">
        <ele>4</ele>
        <time>2019-09-12T15:18:33+02:00</time>
      </trkpt>
      <trkpt lat="47.69082" lon="-3.20211">
        <ele>4</ele>
        <time>2019-09-12T15:18:52+02:00</time>
      </trkpt>
      <trkpt lat="47.69084" lon="-3.20182">
        <ele>4</ele>
        <time>2019-09-12T15:19:08+02:00</time>
      </trkpt>
      <trkpt lat="47.69089" lon="-3.20159">
        <ele>4</ele>
        <time>2019-09-12T15:19:23+02:00</time>
      </trkpt>
      <trkpt lat="47.69096" lon="-3.20148">
        <ele>3</ele>
        <time>2019-09-12T15:19:33+02:00</time>
      </trkpt>
      <trkpt lat="47.69095" lon="-3.20096">
        <ele>1</ele>
        <time>2019-09-12T15:20:08+02:00</time>
      </trkpt>
      <trkpt lat="47.69103" lon="-3.20076">
        <ele>1</ele>
        <time>2019-09-12T15:20:25+02:00</time>
      </trkpt>
      <trkpt lat="47.69118" lon="-3.20074">
        <ele>2</ele>
        <time>2019-09-12T15:20:37+02:00</time>
      </trkpt>
      <trkpt lat="47.69126" lon="-3.20065">
        <ele>2</ele>
        <time>2019-09-12T15:20:47+02:00</time>
      </trkpt>
      <trkpt lat="47.69136" lon="-3.20016">
        <ele>4</ele>
        <time>2019-09-12T15:21:20+02:00</time>
      </trkpt>
      <trkpt lat="47.69124" lon="-3.19997">
        <ele>4</ele>
        <time>2019-09-12T15:25:36+02:00</time>
      </trkpt>
      <trkpt lat="47.69116" lon="-3.1999">
        <ele>4</ele>
        <time>2019-09-12T15:25:50+02:00</time>
      </trkpt>
      <trkpt lat="47.6909" lon="-3.19963">
        <ele>4</ele>
        <time>2019-09-12T15:27:05+02:00</time>
      </trkpt>
      <trkpt lat="47.69067" lon="-3.19969">
        <ele>3</ele>
        <time>2019-09-12T15:27:29+02:00</time>
      </trkpt>
      <trkpt lat="47.6905" lon="-3.19968">
        <ele>3</ele>
        <time>2019-09-12T15:27:55+02:00</time>
      </trkpt>
      <trkpt lat="47.69039" lon="-3.19975">
        <ele>2</ele>
        <time>2019-09-12T15:28:06+02:00</time>
      </trkpt>
      <trkpt lat="47.6902" lon="-3.2">
        <ele>2</ele>
        <time>2019-09-12T15:28:25+02:00</time>
      </trkpt>
      <trkpt lat="47.68992" lon="-3.20021">
        <ele>-1</ele>
        <time>2019-09-12T15:28:53+02:00</time>
      </trkpt>
      <trkpt lat="47.68969" lon="-3.20046">
        <ele>1.9</ele>
        <time>2019-09-12T15:29:16+02:00</time>
      </trkpt>
      <trkpt lat="47.68962" lon="-3.20032">
        <ele>1.6</ele>
        <time>2019-09-12T15:29:26+02:00</time>
      </trkpt>
      <trkpt lat="47.6896" lon="-3.20004">
        <ele>2</ele>
        <time>2019-09-12T15:29:41+02:00</time>
      </trkpt>
      <trkpt lat="47.68951" lon="-3.19964">
        <ele>2.7</ele>
        <time>2019-09-12T15:30:05+02:00</time>
      </trkpt>
      <trkpt lat="47.68941" lon="-3.1995">
        <ele>1</ele>
        <time>2019-09-12T15:30:18+02:00</time>
      </trkpt>
      <trkpt lat="47.68933" lon="-3.19929">
        <ele>1</ele>
        <time>2019-09-12T15:30:32+02:00</time>
      </trkpt>
      <trkpt lat="47.68941" lon="-3.19907">
        <ele>2</ele>
        <time>2019-09-12T15:30:47+02:00</time>
      </trkpt>
      <trkpt lat="47.6894" lon="-3.19873">
        <ele>4</ele>
        <time>2019-09-12T15:31:07+02:00</time>
      </trkpt>
      <trkpt lat="47.68933" lon="-3.19857">
        <ele>5</ele>
        <time>2019-09-12T15:31:18+02:00</time>
      </trkpt>
      <trkpt lat="47.68917" lon="-3.19833">
        <ele>6</ele>
        <time>2019-09-12T15:31:37+02:00</time>
      </trkpt>
      <trkpt lat="47.68908" lon="-3.19824">
        <ele>6</ele>
        <time>2019-09-12T15:31:47+02:00</time>
      </trkpt>
      <trkpt lat="47.68892" lon="-3.19813">
        <ele>5</ele>
        <time>2019-09-12T15:32:08+02:00</time>
      </trkpt>
      <trkpt lat="47.68876" lon="-3.19807">
        <ele>5</ele>
        <time>2019-09-12T15:33:40+02:00</time>
      </trkpt>
      <trkpt lat="47.68853" lon="-3.19809">
        <ele>4</ele>
        <time>2019-09-12T15:33:58+02:00</time>
      </trkpt>
      <trkpt lat="47.68846" lon="-3.19811">
        <ele>4</ele>
        <time>2019-09-12T15:34:14+02:00</time>
      </trkpt>
      <trkpt lat="47.68825" lon="-3.19829">
        <ele>3</ele>
        <time>2019-09-12T15:34:47+02:00</time>
      </trkpt>
      <trkpt lat="47.6881" lon="-3.19852">
        <ele>2</ele>
        <time>2019-09-12T15:35:01+02:00</time>
      </trkpt>
      <trkpt lat="47.68808" lon="-3.19882">
        <ele>1</ele>
        <time>2019-09-12T15:35:17+02:00</time>
      </trkpt>
      <trkpt lat="47.68814" lon="-3.19928">
        <ele>4.6</ele>
        <time>2019-09-12T15:35:42+02:00</time>
      </trkpt>
      <trkpt lat="47.68811" lon="-3.19946">
        <ele>3.8</ele>
        <time>2019-09-12T15:35:55+02:00</time>
      </trkpt>
      <trkpt lat="47.68795" lon="-3.19963">
        <ele>2.6</ele>
        <time>2019-09-12T15:36:12+02:00</time>
      </trkpt>
      <trkpt lat="47.68779" lon="-3.19976">
        <ele>2.7</ele>
        <time>2019-09-12T15:37:13+02:00</time>
      </trkpt>
      <trkpt lat="47.68752" lon="-3.19961">
        <ele>1</ele>
        <time>2019-09-12T15:37:37+02:00</time>
      </trkpt>
      <trkpt lat="47.68737" lon="-3.19937">
        <ele>1</ele>
        <time>2019-09-12T15:37:57+02:00</time>
      </trkpt>
      <trkpt lat="47.68731" lon="-3.19916">
        <ele>2</ele>
        <time>2019-09-12T15:38:10+02:00</time>
      </trkpt>
      <trkpt lat="47.68741" lon="-3.19881">
        <ele>1</ele>
        <time>2019-09-12T15:39:26+02:00</time>
      </trkpt>
      <trkpt lat="47.68765" lon="-3.19857">
        <ele>1</ele>
        <time>2019-09-12T15:39:58+02:00</time>
      </trkpt>
      <trkpt lat="47.68773" lon="-3.19839">
        <ele>2</ele>
        <time>2019-09-12T15:40:14+02:00</time>
      </trkpt>
      <trkpt lat="47.68771" lon="-3.19782">
        <ele>1</ele>
        <time>2019-09-12T15:40:46+02:00</time>
      </trkpt>
      <trkpt lat="47.68772" lon="-3.19767">
        <ele>1</ele>
        <time>2019-09-12T15:40:56+02:00</time>
      </trkpt>
      <trkpt lat="47.68782" lon="-3.19747">
        <ele>2</ele>
        <time>2019-09-12T15:41:13+02:00</time>
      </trkpt>
      <trkpt lat="47.68789" lon="-3.19737">
        <ele>2</ele>
        <time>2019-09-12T15:41:46+02:00</time>
      </trkpt>
      <trkpt lat="47.68795" lon="-3.1971">
        <ele>2</ele>
        <time>2019-09-12T15:42:12+02:00</time>
      </trkpt>
      <trkpt lat="47.68795" lon="-3.1969">
        <ele>2</ele>
        <time>2019-09-12T15:42:25+02:00</time>
      </trkpt>
      <trkpt lat="47.68798" lon="-3.19674">
        <ele>2</ele>
        <time>2019-09-12T15:42:35+02:00</time>
      </trkpt>
      <trkpt lat="47.68805" lon="-3.19658">
        <ele>2</ele>
        <time>2019-09-12T15:42:47+02:00</time>
      </trkpt>
      <trkpt lat="47.6882" lon="-3.19641">
        <ele>3</ele>
        <time>2019-09-12T15:43:25+02:00</time>
      </trkpt>
      <trkpt lat="47.68838" lon="-3.19606">
        <ele>2</ele>
        <time>2019-09-12T15:43:51+02:00</time>
      </trkpt>
      <trkpt lat="47.68875" lon="-3.19585">
        <ele>3</ele>
        <time>2019-09-12T15:44:26+02:00</time>
      </trkpt>
      <trkpt lat="47.68891" lon="-3.19552">
        <ele>3</ele>
        <time>2019-09-12T15:45:55+02:00</time>
      </trkpt>
      <trkpt lat="47.68899" lon="-3.19545">
        <ele>4</ele>
        <time>2019-09-12T15:46:04+02:00</time>
      </trkpt>
      <trkpt lat="47.68914" lon="-3.19514">
        <ele>5</ele>
        <time>2019-09-12T15:46:26+02:00</time>
      </trkpt>
      <trkpt lat="47.6892" lon="-3.19488">
        <ele>5</ele>
        <time>2019-09-12T15:46:41+02:00</time>
      </trkpt>
      <trkpt lat="47.68919" lon="-3.19438">
        <ele>2</ele>
        <time>2019-09-12T15:47:09+02:00</time>
      </trkpt>
      <trkpt lat="47.68938" lon="-3.19425">
        <ele>2</ele>
        <time>2019-09-12T15:47:45+02:00</time>
      </trkpt>
      <trkpt lat="47.68947" lon="-3.19414">
        <ele>3</ele>
        <time>2019-09-12T15:47:56+02:00</time>
      </trkpt>
      <trkpt lat="47.68957" lon="-3.19395">
        <ele>3</ele>
        <time>2019-09-12T15:48:10+02:00</time>
      </trkpt>
      <trkpt lat="47.68982" lon="-3.19392">
        <ele>4</ele>
        <time>2019-09-12T15:48:31+02:00</time>
      </trkpt>
      <trkpt lat="47.69016" lon="-3.19367">
        <ele>4</ele>
        <time>2019-09-12T15:49:03+02:00</time>
      </trkpt>
      <trkpt lat="47.69025" lon="-3.19334">
        <ele>3</ele>
        <time>2019-09-12T15:49:24+02:00</time>
      </trkpt>
      <trkpt lat="47.69041" lon="-3.19337">
        <ele>3</ele>
        <time>2019-09-12T15:49:42+02:00</time>
      </trkpt>
      <trkpt lat="47.69056" lon="-3.19321">
        <ele>3</ele>
        <time>2019-09-12T15:49:57+02:00</time>
      </trkpt>
      <trkpt lat="47.6907" lon="-3.19312">
        <ele>3</ele>
        <time>2019-09-12T15:50:10+02:00</time>
      </trkpt>
      <trkpt lat="47.6908" lon="-3.19291">
        <ele>3</ele>
        <time>2019-09-12T15:50:23+02:00</time>
      </trkpt>
      <trkpt lat="47.69086" lon="-3.19265">
        <ele>2</ele>
        <time>2019-09-12T15:51:24+02:00</time>
      </trkpt>
      <trkpt lat="47.69085" lon="-3.19243">
        <ele>2</ele>
        <time>2019-09-12T15:51:42+02:00</time>
      </trkpt>
      <trkpt lat="47.69094" lon="-3.19216">
        <ele>2</ele>
        <time>2019-09-12T15:52:01+02:00</time>
      </trkpt>
      <trkpt lat="47.69103" lon="-3.19177">
        <ele>2</ele>
        <time>2019-09-12T15:52:26+02:00</time>
      </trkpt>
      <trkpt lat="47.69106" lon="-3.19151">
        <ele>3</ele>
        <time>2019-09-12T15:52:41+02:00</time>
      </trkpt>
      <trkpt lat="47.69105" lon="-3.19123">
        <ele>5</ele>
        <time>2019-09-12T15:53:03+02:00</time>
      </trkpt>
      <trkpt lat="47.69113" lon="-3.19107">
        <ele>6</ele>
        <time>2019-09-12T15:53:26+02:00</time>
      </trkpt>
      <trkpt lat="47.69128" lon="-3.19101">
        <ele>7</ele>
        <time>2019-09-12T15:53:47+02:00</time>
      </trkpt>
      <trkpt lat="47.69134" lon="-3.19127">
        <ele>6</ele>
        <time>2019-09-12T15:54:09+02:00</time>
      </trkpt>
      <trkpt lat="47.69151" lon="-3.19174">
        <ele>6</ele>
        <time>2019-09-12T15:54:43+02:00</time>
      </trkpt>
      <trkpt lat="47.6915" lon="-3.1916">
        <ele>6</ele>
        <time>2019-09-12T15:55:27+02:00</time>
      </trkpt>
      <trkpt lat="47.69142" lon="-3.19139">
        <ele>6</ele>
        <time>2019-09-12T15:55:40+02:00</time>
      </trkpt>
      <trkpt lat="47.69121" lon="-3.19096">
        <ele>7</ele>
        <time>2019-09-12T15:56:10+02:00</time>
      </trkpt>
      <trkpt lat="47.69104" lon="-3.19083">
        <ele>7</ele>
        <time>2019-09-12T15:56:43+02:00</time>
      </trkpt>
      <trkpt lat="47.69116" lon="-3.19077">
        <ele>7</ele>
        <time>2019-09-12T16:03:20+02:00</time>
      </trkpt>
      <trkpt lat="47.69099" lon="-3.19033">
        <ele>5</ele>
        <time>2019-09-12T16:03:47+02:00</time>
      </trkpt>
      <trkpt lat="47.69108" lon="-3.19014">
        <ele>5</ele>
        <time>2019-09-12T16:05:26+02:00</time>
      </trkpt>
      <trkpt lat="47.69127" lon="-3.18961">
        <ele>4</ele>
        <time>2019-09-12T16:06:25+02:00</time>
      </trkpt>
      <trkpt lat="47.6914" lon="-3.18946">
        <ele>4</ele>
        <time>2019-09-12T16:06:39+02:00</time>
      </trkpt>
      <trkpt lat="47.69159" lon="-3.18935">
        <ele>5</ele>
        <time>2019-09-12T16:06:54+02:00</time>
      </trkpt>
      <trkpt lat="47.69177" lon="-3.18918">
        <ele>5</ele>
        <time>2019-09-12T16:07:10+02:00</time>
      </trkpt>
      <trkpt lat="47.69189" lon="-3.18901">
        <ele>4</ele>
        <time>2019-09-12T16:07:26+02:00</time>
      </trkpt>
      <trkpt lat="47.69204" lon="-3.18889">
        <ele>4</ele>
        <time>2019-09-12T16:07:41+02:00</time>
      </trkpt>
      <trkpt lat="47.69229" lon="-3.18879">
        <ele>3</ele>
        <time>2019-09-12T16:08:14+02:00</time>
      </trkpt>
      <trkpt lat="47.69229" lon="-3.18883">
        <ele>4</ele>
        <time>2019-09-12T16:09:31+02:00</time>
      </trkpt>
      <trkpt lat="47.69245" lon="-3.18904">
        <ele>5</ele>
        <time>2019-09-12T16:09:49+02:00</time>
      </trkpt>
      <trkpt lat="47.69247" lon="-3.18918">
        <ele>6</ele>
        <time>2019-09-12T16:09:58+02:00</time>
      </trkpt>
      <trkpt lat="47.69244" lon="-3.18947">
        <ele>4</ele>
        <time>2019-09-12T16:10:16+02:00</time>
      </trkpt>
      <trkpt lat="47.69257" lon="-3.18985">
        <ele>1</ele>
        <time>2019-09-12T16:10:41+02:00</time>
      </trkpt>
      <trkpt lat="47.6925" lon="-3.19009">
        <ele>3</ele>
        <time>2019-09-12T16:10:56+02:00</time>
      </trkpt>
      <trkpt lat="47.69238" lon="-3.19027">
        <ele>1</ele>
        <time>2019-09-12T16:11:17+02:00</time>
      </trkpt>
      <trkpt lat="47.69234" lon="-3.19076">
        <ele>2</ele>
        <time>2019-09-12T16:11:51+02:00</time>
      </trkpt>
      <trkpt lat="47.69228" lon="-3.19104">
        <ele>3</ele>
        <time>2019-09-12T16:12:09+02:00</time>
      </trkpt>
      <trkpt lat="47.69229" lon="-3.19117">
        <ele>3</ele>
        <time>2019-09-12T16:12:17+02:00</time>
      </trkpt>
      <trkpt lat="47.69251" lon="-3.1916">
        <ele>4</ele>
        <time>2019-09-12T16:12:46+02:00</time>
      </trkpt>
      <trkpt lat="47.69268" lon="-3.1918">
        <ele>3</ele>
        <time>2019-09-12T16:13:03+02:00</time>
      </trkpt>
      <trkpt lat="47.69295" lon="-3.19197">
        <ele>3</ele>
        <time>2019-09-12T16:13:26+02:00</time>
      </trkpt>
      <trkpt lat="47.69321" lon="-3.19204">
        <ele>2</ele>
        <time>2019-09-12T16:13:46+02:00</time>
      </trkpt>
      <trkpt lat="47.6934" lon="-3.19201">
        <ele>1</ele>
        <time>2019-09-12T16:14:18+02:00</time>
      </trkpt>
      <trkpt lat="47.69346" lon="-3.19204">
        <ele>2</ele>
        <time>2019-09-12T16:14:26+02:00</time>
      </trkpt>
      <trkpt lat="47.69365" lon="-3.19203">
        <ele>2</ele>
        <time>2019-09-12T16:14:41+02:00</time>
      </trkpt>
      <trkpt lat="47.69404" lon="-3.19197">
        <ele>3</ele>
        <time>2019-09-12T16:15:12+02:00</time>
      </trkpt>
      <trkpt lat="47.69421" lon="-3.1919">
        <ele>3</ele>
        <time>2019-09-12T16:15:26+02:00</time>
      </trkpt>
      <trkpt lat="47.6944" lon="-3.19172">
        <ele>3</ele>
        <time>2019-09-12T16:15:44+02:00</time>
      </trkpt>
      <trkpt lat="47.69464" lon="-3.19128">
        <ele>2</ele>
        <time>2019-09-12T16:16:15+02:00</time>
      </trkpt>
      <trkpt lat="47.69476" lon="-3.19113">
        <ele>2</ele>
        <time>2019-09-12T16:16:28+02:00</time>
      </trkpt>
      <trkpt lat="47.69488" lon="-3.19109">
        <ele>2</ele>
        <time>2019-09-12T16:16:39+02:00</time>
      </trkpt>
      <trkpt lat="47.69518" lon="-3.19138">
        <ele>2</ele>
        <time>2019-09-12T16:17:09+02:00</time>
      </trkpt>
      <trkpt lat="47.69539" lon="-3.19178">
        <ele>2</ele>
        <time>2019-09-12T16:17:40+02:00</time>
      </trkpt>
      <trkpt lat="47.69532" lon="-3.19189">
        <ele>3</ele>
        <time>2019-09-12T16:17:50+02:00</time>
      </trkpt>
      <trkpt lat="47.69565" lon="-3.19228">
        <ele>1</ele>
        <time>2019-09-12T16:18:31+02:00</time>
      </trkpt>
      <trkpt lat="47.69563" lon="-3.19253">
        <ele>1</ele>
        <time>2019-09-12T16:18:49+02:00</time>
      </trkpt>
      <trkpt lat="47.69544" lon="-3.19285">
        <ele>2</ele>
        <time>2019-09-12T16:19:29+02:00</time>
      </trkpt>
      <trkpt lat="47.69531" lon="-3.19323">
        <ele>3</ele>
        <time>2019-09-12T16:19:54+02:00</time>
      </trkpt>
      <trkpt lat="47.69518" lon="-3.1934">
        <ele>3</ele>
        <time>2019-09-12T16:20:08+02:00</time>
      </trkpt>
      <trkpt lat="47.69507" lon="-3.19337">
        <ele>3</ele>
        <time>2019-09-12T16:20:23+02:00</time>
      </trkpt>
      <trkpt lat="47.69496" lon="-3.19317">
        <ele>4</ele>
        <time>2019-09-12T16:20:53+02:00</time>
      </trkpt>
      <trkpt lat="47.69478" lon="-3.19317">
        <ele>4</ele>
        <time>2019-09-12T16:21:16+02:00</time>
      </trkpt>
      <trkpt lat="47.69474" lon="-3.19332">
        <ele>3</ele>
        <time>2019-09-12T16:21:26+02:00</time>
      </trkpt>
      <trkpt lat="47.69453" lon="-3.19333">
        <ele>3</ele>
        <time>2019-09-12T16:21:46+02:00</time>
      </trkpt>
      <trkpt lat="47.6942" lon="-3.19346">
        <ele>2</ele>
        <time>2019-09-12T16:22:13+02:00</time>
      </trkpt>
      <trkpt lat="47.6941" lon="-3.19347">
        <ele>2</ele>
        <time>2019-09-12T16:22:26+02:00</time>
      </trkpt>
      <trkpt lat="47.69384" lon="-3.19363">
        <ele>1</ele>
        <time>2019-09-12T16:22:52+02:00</time>
      </trkpt>
      <trkpt lat="47.69369" lon="-3.19384">
        <ele>2.3</ele>
        <time>2019-09-12T16:23:10+02:00</time>
      </trkpt>
      <trkpt lat="47.69361" lon="-3.19401">
        <ele>2.6</ele>
        <time>2019-09-12T16:23:23+02:00</time>
      </trkpt>
      <trkpt lat="47.69343" lon="-3.19472">
        <ele>1.6</ele>
        <time>2019-09-12T16:24:16+02:00</time>
      </trkpt>
      <trkpt lat="47.69327" lon="-3.19489">
        <ele>1.7</ele>
        <time>2019-09-12T16:24:57+02:00</time>
      </trkpt>
      <trkpt lat="47.69308" lon="-3.19514">
        <ele>1</ele>
        <time>2019-09-12T16:25:20+02:00</time>
      </trkpt>
      <trkpt lat="47.69302" lon="-3.19517">
        <ele>1</ele>
        <time>2019-09-12T16:25:31+02:00</time>
      </trkpt>
      <trkpt lat="47.69281" lon="-3.1957">
        <ele>3</ele>
        <time>2019-09-12T16:26:15+02:00</time>
      </trkpt>
      <trkpt lat="47.69291" lon="-3.19578">
        <ele>2</ele>
        <time>2019-09-12T16:26:47+02:00</time>
      </trkpt>
      <trkpt lat="47.6931" lon="-3.19578">
        <ele>2</ele>
        <time>2019-09-12T16:27:03+02:00</time>
      </trkpt>
      <trkpt lat="47.6933" lon="-3.19585">
        <ele>2</ele>
        <time>2019-09-12T16:27:20+02:00</time>
      </trkpt>
      <trkpt lat="47.69345" lon="-3.19571">
        <ele>1</ele>
        <time>2019-09-12T16:27:37+02:00</time>
      </trkpt>
      <trkpt lat="47.69373" lon="-3.19581">
        <ele>1</ele>
        <time>2019-09-12T16:28:30+02:00</time>
      </trkpt>
      <trkpt lat="47.69384" lon="-3.19594">
        <ele>1</ele>
        <time>2019-09-12T16:29:04+02:00</time>
      </trkpt>
      <trkpt lat="47.69423" lon="-3.19627">
        <ele>2.3</ele>
        <time>2019-09-12T16:29:40+02:00</time>
      </trkpt>
      <trkpt lat="47.69434" lon="-3.19643">
        <ele>1.7</ele>
        <time>2019-09-12T16:29:54+02:00</time>
      </trkpt>
      <trkpt lat="47.69441" lon="-3.19671">
        <ele>1.5</ele>
        <time>2019-09-12T16:30:10+02:00</time>
      </trkpt>
      <trkpt lat="47.69452" lon="-3.19696">
        <ele>1</ele>
        <time>2019-09-12T16:30:33+02:00</time>
      </trkpt>
      <trkpt lat="47.69455" lon="-3.19731">
        <ele>2</ele>
        <time>2019-09-12T16:30:57+02:00</time>
      </trkpt>
      <trkpt lat="47.69461" lon="-3.19739">
        <ele>2</ele>
        <time>2019-09-12T16:31:06+02:00</time>
      </trkpt>
      <trkpt lat="47.69477" lon="-3.19742">
        <ele>1</ele>
        <time>2019-09-12T16:31:21+02:00</time>
      </trkpt>
      <trkpt lat="47.69502" lon="-3.19755">
        <ele>2.3</ele>
        <time>2019-09-12T16:31:46+02:00</time>
      </trkpt>
      <trkpt lat="47.69553" lon="-3.19789">
        <ele>2</ele>
        <time>2019-09-12T16:34:44+02:00</time>
      </trkpt>
      <trkpt lat="47.69593" lon="-3.19801">
        <ele>1</ele>
        <time>2019-09-12T16:35:19+02:00</time>
      </trkpt>
      <trkpt lat="47.69595" lon="-3.19808">
        <ele>1</ele>
        <time>2019-09-12T16:35:25+02:00</time>
      </trkpt>
      <trkpt lat="47.69576" lon="-3.19846">
        <ele>3</ele>
        <time>2019-09-12T16:35:55+02:00</time>
      </trkpt>
      <trkpt lat="47.69586" lon="-3.1989">
        <ele>3</ele>
        <time>2019-09-12T16:36:23+02:00</time>
      </trkpt>
      <trkpt lat="47.696" lon="-3.19909">
        <ele>3</ele>
        <time>2019-09-12T16:36:41+02:00</time>
      </trkpt>
      <trkpt lat="47.69613" lon="-3.19916">
        <ele>3</ele>
        <time>2019-09-12T16:36:52+02:00</time>
      </trkpt>
      <trkpt lat="47.69642" lon="-3.19917">
        <ele>3</ele>
        <time>2019-09-12T16:47:21+02:00</time>
      </trkpt>
      <trkpt lat="47.69664" lon="-3.19958">
        <ele>3</ele>
        <time>2019-09-12T16:48:24+02:00</time>
      </trkpt>
      <trkpt lat="47.6967" lon="-3.19981">
        <ele>2</ele>
        <time>2019-09-12T16:48:38+02:00</time>
      </trkpt>
      <trkpt lat="47.69662" lon="-3.20009">
        <ele>2</ele>
        <time>2019-09-12T16:48:55+02:00</time>
      </trkpt>
      <trkpt lat="47.69641" lon="-3.20037">
        <ele>2</ele>
        <time>2019-09-12T16:49:18+02:00</time>
      </trkpt>
      <trkpt lat="47.69632" lon="-3.20062">
        <ele>2</ele>
        <time>2019-09-12T16:49:34+02:00</time>
      </trkpt>
      <trkpt lat="47.69633" lon="-3.20085">
        <ele>2</ele>
        <time>2019-09-12T16:49:51+02:00</time>
      </trkpt>
      <trkpt lat="47.6965" lon="-3.20087">
        <ele>2</ele>
        <time>2019-09-12T16:50:20+02:00</time>
      </trkpt>
      <trkpt lat="47.69668" lon="-3.20062">
        <ele>2</ele>
        <time>2019-09-12T16:50:43+02:00</time>
      </trkpt>
      <trkpt lat="47.69692" lon="-3.20049">
        <ele>2</ele>
        <time>2019-09-12T16:51:08+02:00</time>
      </trkpt>
      <trkpt lat="47.69715" lon="-3.20051">
        <ele>3</ele>
        <time>2019-09-12T16:51:35+02:00</time>
      </trkpt>
      <trkpt lat="47.69727" lon="-3.20072">
        <ele>3</ele>
        <time>2019-09-12T16:51:52+02:00</time>
      </trkpt>
      <trkpt lat="47.69739" lon="-3.20133">
        <ele>3</ele>
        <time>2019-09-12T16:52:29+02:00</time>
      </trkpt>
      <trkpt lat="47.6974" lon="-3.20149">
        <ele>3</ele>
        <time>2019-09-12T16:52:40+02:00</time>
      </trkpt>
      <trkpt lat="47.6974" lon="-3.20256">
        <ele>2</ele>
        <time>2019-09-12T16:54:50+02:00</time>
      </trkpt>
      <trkpt lat="47.69733" lon="-3.20309">
        <ele>2</ele>
        <time>2019-09-12T16:55:22+02:00</time>
      </trkpt>
      <trkpt lat="47.6972" lon="-3.20344">
        <ele>3</ele>
        <time>2019-09-12T16:55:46+02:00</time>
      </trkpt>
      <trkpt lat="47.69707" lon="-3.20355">
        <ele>3</ele>
        <time>2019-09-12T16:55:59+02:00</time>
      </trkpt>
      <trkpt lat="47.69681" lon="-3.20366">
        <ele>4</ele>
        <time>2019-09-12T16:56:22+02:00</time>
      </trkpt>
      <trkpt lat="47.6967" lon="-3.20365">
        <ele>5</ele>
        <time>2019-09-12T16:56:33+02:00</time>
      </trkpt>
      <trkpt lat="47.69658" lon="-3.20373">
        <ele>5</ele>
        <time>2019-09-12T16:56:43+02:00</time>
      </trkpt>
      <trkpt lat="47.69646" lon="-3.20385">
        <ele>5</ele>
        <time>2019-09-12T16:56:54+02:00</time>
      </trkpt>
      <trkpt lat="47.69638" lon="-3.20401">
        <ele>5</ele>
        <time>2019-09-12T16:57:05+02:00</time>
      </trkpt>
      <trkpt lat="47.69634" lon="-3.20419">
        <ele>4</ele>
        <time>2019-09-12T16:57:18+02:00</time>
      </trkpt>
      <trkpt lat="47.6962" lon="-3.20426">
        <ele>5</ele>
        <time>2019-09-12T16:57:33+02:00</time>
      </trkpt>
      <trkpt lat="47.69606" lon="-3.20441">
        <ele>5</ele>
        <time>2019-09-12T16:57:54+02:00</time>
      </trkpt>
      <trkpt lat="47.6958" lon="-3.20475">
        <ele>4</ele>
        <time>2019-09-12T16:58:29+02:00</time>
      </trkpt>
      <trkpt lat="47.69557" lon="-3.20514">
        <ele>2</ele>
        <time>2019-09-12T17:09:46+02:00</time>
      </trkpt>
      <trkpt lat="47.70372" lon="-3.19512">
        <ele>2</ele>
      </trkpt>
      <trkpt lat="47.70429" lon="-3.19649">
        <ele>3.7</ele>
      </trkpt>
      <trkpt lat="47.70443" lon="-3.19726">
        <ele>2.1</ele>
      </trkpt>
      <trkpt lat="47.70413" lon="-3.19805">
        <ele>3.1</ele>
      </trkpt>
      <trkpt lat="47.70406" lon="-3.19887">
        <ele>2.8</ele>
      </trkpt>
      <trkpt lat="47.70459" lon="-3.19889">
        <ele>2.5</ele>
      </trkpt>
      <trkpt lat="47.70481" lon="-3.19848">
        <ele>2.8</ele>
      </trkpt>
      <trkpt lat="47.70526" lon="-3.19848">
        <ele>5.8</ele>
      </trkpt>
      <trkpt lat="47.70562" lon="-3.19777">
        <ele>6.2</ele>
      </trkpt>
      <trkpt lat="47.70633" lon="-3.19891">
        <ele>4.3</ele>
      </trkpt>
      <trkpt lat="47.70733" lon="-3.20003">
        <ele>3.1</ele>
      </trkpt>
      <trkpt lat="47.70717" lon="-3.19896">
        <ele>2</ele>
      </trkpt>
      <trkpt lat="47.70814" lon="-3.19833">
        <ele>2</ele>
      </trkpt>
      <trkpt lat="47.70904" lon="-3.20055">
        <ele>2</ele>
      </trkpt>
      <trkpt lat="47.70972" lon="-3.20046">
        <ele>2</ele>
      </trkpt>
      <trkpt lat="47.70966" lon="-3.19945">
        <ele>2</ele>
      </trkpt>
      <trkpt lat="47.70995" lon="-3.19846">
        <ele>2</ele>
      </trkpt>
      <trkpt lat="47.71226" lon="-3.19661">
        <ele>2.8</ele>
      </trkpt>
      <trkpt lat="47.71259" lon="-3.19438">
        <ele>3</ele>
      </trkpt>
      <trkpt lat="47.71541" lon="-3.19492">
        <ele>4</ele>
      </trkpt>
      <trkpt lat="47.71629" lon="-3.19829">
        <ele>4.9</ele>
      </trkpt>
      <trkpt lat="47.71549" lon="-3.1988">
        <ele>7.8</ele>
      </trkpt>
      <trkpt lat="47.71549" lon="-3.19964">
        <ele>11.2</ele>
      </trkpt>
      <trkpt lat="47.71509" lon="-3.19973">
        <ele>11.7</ele>
      </trkpt>
      <trkpt lat="47.71467" lon="-3.20269">
        <ele>16.7</ele>
      </trkpt>
      <trkpt lat="47.71271" lon="-3.20159">
        <ele>13.8</ele>
      </trkpt>
      <trkpt lat="47.71132" lon="-3.20524">
        <ele>2</ele>
      </trkpt>
      <trkpt lat="47.71064" lon="-3.20518">
        <ele>2</ele>
      </trkpt>
      <trkpt lat="47.70885" lon="-3.2005">
        <ele>2</ele>
      </trkpt>
      <trkpt lat="47.70788" lon="-3.20101">
        <ele>3</ele>
      </trkpt>
      <trkpt lat="47.70735" lon="-3.19998">
        <ele>3</ele>
      </trkpt>
    </trkseg>
  </trk>
</gpx>